Time,TemperatureF,DewpointF,PressureIn,WindDirection,WindDirectionDegrees,WindSpeedMPH,WindSpeedGustMPH,Humidity,HourlyPrecipIn,Conditions,Clouds,dailyrainin,SoftwareType,DateUTC
2013-09-12 00:01:00,73.9,65.1,0.00,North,357,0.0,0.0,74,0.00,,---,0.00,VWS V13.01,2013-09-12 04:01:00,
2013-09-12 00:02:00,73.9,65.1,0.00,North,357,0.0,0.0,74,0.00,,---,0.00,VWS V13.01,2013-09-12 04:02:00,
2013-09-12 00:04:00,74.1,65.3,0.00,North,357,0.0,0.0,74,0.00,,---,0.00,VWS V13.01,2013-09-12 04:04:00,
2013-09-12 00:06:00,74.1,65.3,0.00,North,357,0.0,0.0,74,0.00,,---,0.00,VWS V13.01,2013-09-12 04:06:00,
2013-09-12 00:10:00,74.3,65.9,0.00,North,357,0.0,0.0,75,0.00,,---,0.00,VWS V13.01,2013-09-12 04:10:00,
2013-09-12 00:15:00,74.7,65.4,0.00,North,357,0.0,0.0,73,0.00,,---,0.00,VWS V13.01,2013-09-12 04:15:00,
2013-09-12 00:20:00,74.5,64.5,0.00,North,357,0.0,0.0,71,0.00,,---,0.00,VWS V13.01,2013-09-12 04:20:00,
2013-09-12 00:25:00,74.3,64.3,0.00,North,357,0.0,0.0,71,0.00,,---,0.00,VWS V13.01,2013-09-12 04:25:00,
2013-09-12 00:31:00,73.4,63.4,0.00,North,357,0.0,0.0,71,0.00,,---,0.00,VWS V13.01,2013-09-12 04:31:00,
2013-09-12 00:36:00,72.5,63.8,0.00,North,357,0.0,0.0,74,0.00,,---,0.00,VWS V13.01,2013-09-12 04:36:00,
2013-09-12 00:41:00,72.0,63.6,0.00,North,357,0.0,0.0,75,0.00,,---,0.00,VWS V13.01,2013-09-12 04:41:00,
2013-09-12 00:46:00,71.6,64.0,0.00,North,357,0.0,0.0,77,0.00,,---,0.00,VWS V13.01,2013-09-12 04:46:00,
2013-09-12 00:51:00,71.2,64.0,0.00,North,357,0.0,0.0,78,0.00,,---,0.00,VWS V13.01,2013-09-12 04:51:00,
2013-09-12 00:56:00,71.1,64.2,0.00,North,357,0.0,0.0,79,0.00,,---,0.00,VWS V13.01,2013-09-12 04:56:00,
2013-09-12 01:01:00,70.9,64.4,0.00,North,357,0.0,0.0,80,0.00,,---,0.00,VWS V13.01,2013-09-12 05:01:00,
2013-09-12 01:06:00,70.7,64.6,0.00,North,357,0.0,0.0,81,0.00,,---,0.00,VWS V13.01,2013-09-12 05:06:00,
2013-09-12 01:11:00,70.5,64.8,0.00,North,357,0.0,0.0,82,0.00,,---,0.00,VWS V13.01,2013-09-12 05:11:00,
2013-09-12 01:16:00,70.3,64.6,0.00,North,357,0.0,0.0,82,0.00,,---,0.00,VWS V13.01,2013-09-12 05:16:00,
2013-09-12 01:21:00,70.2,64.8,0.00,North,357,0.0,0.0,83,0.00,,---,0.00,VWS V13.01,2013-09-12 05:21:00,
2013-09-12 01:26:00,70.0,64.9,0.00,North,357,0.0,0.0,84,0.00,,---,0.00,VWS V13.01,2013-09-12 05:26:00,
2013-09-12 01:30:00,70.0,64.9,0.00,North,357,0.0,0.0,84,0.00,,---,0.00,VWS V13.01,2013-09-12 05:30:00,
2013-09-12 01:35:00,69.8,65.1,0.00,North,357,0.0,0.0,85,0.00,,---,0.00,VWS V13.01,2013-09-12 05:35:00,
2013-09-12 01:40:00,69.8,65.4,0.00,North,357,0.0,0.0,86,0.00,,---,0.00,VWS V13.01,2013-09-12 05:40:00,
2013-09-12 01:45:00,69.6,65.6,0.00,North,357,0.0,0.0,87,0.00,,---,0.00,VWS V13.01,2013-09-12 05:45:00,
2013-09-12 01:50:00,69.6,65.6,0.00,North,357,0.0,0.0,87,0.00,,---,0.00,VWS V13.01,2013-09-12 05:50:00,
2013-09-12 01:55:00,69.6,65.9,0.00,North,357,0.0,0.0,88,0.00,,---,0.00,VWS V13.01,2013-09-12 05:55:00,
2013-09-12 02:00:00,69.6,65.9,0.00,North,357,0.0,0.0,88,0.00,,---,0.00,VWS V13.01,2013-09-12 06:00:00,
2013-09-12 02:05:00,69.4,65.7,0.00,North,357,0.0,0.0,88,0.00,,---,0.00,VWS V13.01,2013-09-12 06:05:00,
2013-09-12 02:10:00,69.4,66.1,0.00,North,357,0.0,0.0,89,0.00,,---,0.00,VWS V13.01,2013-09-12 06:10:00,
2013-09-12 02:15:00,69.4,66.1,0.00,North,357,0.0,0.0,89,0.00,,---,0.00,VWS V13.01,2013-09-12 06:15:00,
2013-09-12 02:20:00,69.4,66.1,0.00,North,357,0.0,0.0,89,0.00,,---,0.00,VWS V13.01,2013-09-12 06:20:00,
2013-09-12 02:25:00,69.4,66.1,0.00,North,357,0.0,0.0,89,0.00,,---,0.00,VWS V13.01,2013-09-12 06:25:00,
2013-09-12 02:30:00,69.4,66.1,0.00,North,357,0.0,0.0,89,0.00,,---,0.00,VWS V13.01,2013-09-12 06:30:00,
2013-09-12 02:35:00,69.4,66.1,0.00,North,357,0.0,0.0,89,0.00,,---,0.00,VWS V13.01,2013-09-12 06:35:00,
2013-09-12 02:41:00,69.3,65.6,0.00,North,357,0.0,0.0,88,0.00,,---,0.00,VWS V13.01,2013-09-12 06:41:00,
2013-09-12 02:46:00,69.1,65.4,0.00,North,357,0.0,0.0,88,0.00,,---,0.00,VWS V13.01,2013-09-12 06:46:00,
2013-09-12 02:51:00,69.1,65.4,0.00,North,357,0.0,0.0,88,0.00,,---,0.00,VWS V13.01,2013-09-12 06:51:00,
2013-09-12 02:56:00,69.1,65.4,0.00,North,357,0.0,0.0,88,0.00,,---,0.00,VWS V13.01,2013-09-12 06:56:00,
2013-09-12 03:01:00,68.9,65.5,0.00,North,357,0.0,0.0,89,0.00,,---,0.00,VWS V13.01,2013-09-12 07:01:00,
2013-09-12 03:06:00,68.9,65.5,0.00,North,357,0.0,0.0,89,0.00,,---,0.00,VWS V13.01,2013-09-12 07:06:00,
2013-09-12 03:11:00,68.7,65.3,0.00,North,357,0.0,0.0,89,0.00,,---,0.00,VWS V13.01,2013-09-12 07:11:00,
2013-09-12 03:16:00,68.5,65.2,0.00,North,357,0.0,0.0,89,0.00,,---,0.00,VWS V13.01,2013-09-12 07:16:00,
2013-09-12 03:21:00,68.5,65.2,0.00,North,357,0.0,0.0,89,0.00,,---,0.00,VWS V13.01,2013-09-12 07:21:00,
2013-09-12 03:26:00,68.5,65.2,0.00,North,357,0.0,0.0,89,0.00,,---,0.00,VWS V13.01,2013-09-12 07:26:00,
2013-09-12 03:31:00,68.4,65.3,0.00,North,357,0.0,0.0,90,0.00,,---,0.00,VWS V13.01,2013-09-12 07:31:00,
2013-09-12 03:36:00,68.4,65.3,0.00,North,357,0.0,0.0,90,0.00,,---,0.00,VWS V13.01,2013-09-12 07:36:00,
2013-09-12 03:41:00,68.4,65.3,0.00,North,357,0.0,0.0,90,0.00,,---,0.00,VWS V13.01,2013-09-12 07:41:00,
2013-09-12 03:46:00,68.4,65.3,0.00,North,357,0.0,0.0,90,0.00,,---,0.00,VWS V13.01,2013-09-12 07:46:00,
2013-09-12 03:51:00,68.4,65.3,0.00,North,357,0.0,0.0,90,0.00,,---,0.00,VWS V13.01,2013-09-12 07:51:00,
2013-09-12 03:56:00,68.4,65.3,0.00,North,357,0.0,0.0,90,0.00,,---,0.00,VWS V13.01,2013-09-12 07:56:00,
2013-09-12 04:01:00,68.4,65.3,0.00,North,357,0.0,0.0,90,0.00,,---,0.00,VWS V13.01,2013-09-12 08:01:00,
2013-09-12 04:06:00,68.4,65.6,0.00,North,357,0.0,0.0,91,0.00,,---,0.00,VWS V13.01,2013-09-12 08:06:00,
2013-09-12 04:12:00,68.4,65.6,0.00,North,357,0.0,0.0,91,0.00,,---,0.00,VWS V13.01,2013-09-12 08:12:00,
2013-09-12 04:17:00,68.5,65.5,0.00,North,357,0.0,0.0,90,0.00,,---,0.00,VWS V13.01,2013-09-12 08:17:00,
2013-09-12 04:22:00,68.7,65.7,0.00,North,357,0.0,0.0,90,0.00,,---,0.00,VWS V13.01,2013-09-12 08:22:00,
2013-09-12 04:27:00,68.7,65.7,0.00,North,357,0.0,0.0,90,0.00,,---,0.00,VWS V13.01,2013-09-12 08:27:00,
2013-09-12 04:32:00,68.7,65.3,0.00,North,357,0.0,0.0,89,0.00,,---,0.00,VWS V13.01,2013-09-12 08:32:00,
2013-09-12 04:37:00,68.7,65.3,0.00,North,357,0.0,0.0,89,0.00,,---,0.00,VWS V13.01,2013-09-12 08:37:00,
2013-09-12 04:42:00,68.9,65.2,0.00,North,357,0.0,0.0,88,0.00,,---,0.00,VWS V13.01,2013-09-12 08:42:00,
2013-09-12 04:47:00,68.9,65.2,0.00,North,357,0.0,0.0,88,0.00,,---,0.00,VWS V13.01,2013-09-12 08:47:00,
2013-09-12 04:52:00,68.9,64.9,0.00,North,357,0.0,0.0,87,0.00,,---,0.00,VWS V13.01,2013-09-12 08:52:00,
2013-09-12 04:57:00,68.9,64.9,0.00,North,357,0.0,0.0,87,0.00,,---,0.00,VWS V13.01,2013-09-12 08:57:00,
2013-09-12 05:02:00,68.9,64.9,0.00,North,357,0.0,0.0,87,0.00,,---,0.00,VWS V13.01,2013-09-12 09:02:00,
2013-09-12 05:07:00,68.7,64.7,0.00,North,357,0.0,0.0,87,0.00,,---,0.00,VWS V13.01,2013-09-12 09:07:00,
2013-09-12 05:12:00,68.7,64.7,0.00,North,357,0.0,0.0,87,0.00,,---,0.00,VWS V13.01,2013-09-12 09:12:00,
2013-09-12 05:17:00,68.7,64.7,0.00,North,357,0.0,0.0,87,0.00,,---,0.00,VWS V13.01,2013-09-12 09:17:00,
2013-09-12 05:22:00,68.7,64.4,0.00,North,357,0.0,0.0,86,0.00,,---,0.00,VWS V13.01,2013-09-12 09:22:00,
2013-09-12 05:27:00,68.9,64.6,0.00,North,357,0.0,0.0,86,0.00,,---,0.00,VWS V13.01,2013-09-12 09:27:00,
2013-09-12 05:32:00,68.9,64.6,0.00,North,357,0.0,0.0,86,0.00,,---,0.00,VWS V13.01,2013-09-12 09:32:00,
2013-09-12 05:37:00,68.9,64.2,0.00,North,357,0.0,0.0,85,0.00,,---,0.00,VWS V13.01,2013-09-12 09:37:00,
2013-09-12 05:42:00,68.9,64.2,0.00,North,357,0.0,0.0,85,0.00,,---,0.00,VWS V13.01,2013-09-12 09:42:00,
2013-09-12 05:47:00,68.9,64.2,0.00,North,357,0.0,0.0,85,0.00,,---,0.00,VWS V13.01,2013-09-12 09:47:00,
2013-09-12 05:52:00,68.9,63.9,0.00,North,357,0.0,0.0,84,0.00,,---,0.00,VWS V13.01,2013-09-12 09:52:00,
2013-09-12 05:57:00,68.9,63.9,0.00,North,357,0.0,0.0,84,0.00,,---,0.00,VWS V13.01,2013-09-12 09:57:00,
2013-09-12 06:02:00,68.9,63.5,0.00,North,357,0.0,0.0,83,0.00,,---,0.00,VWS V13.01,2013-09-12 10:02:00,
2013-09-12 06:07:00,68.9,63.5,0.00,North,357,0.0,0.0,83,0.00,,---,0.00,VWS V13.01,2013-09-12 10:07:00,
2013-09-12 06:12:00,68.7,63.3,0.00,North,357,0.0,0.0,83,0.00,,---,0.00,VWS V13.01,2013-09-12 10:12:00,
2013-09-12 06:18:00,68.7,63.3,0.00,North,357,0.0,0.0,83,0.00,,---,0.00,VWS V13.01,2013-09-12 10:18:00,
2013-09-12 06:23:00,68.7,63.7,0.00,North,357,0.0,0.0,84,0.00,,---,0.00,VWS V13.01,2013-09-12 10:23:00,
2013-09-12 06:28:00,68.7,63.7,0.00,North,357,0.0,0.0,84,0.00,,---,0.00,VWS V13.01,2013-09-12 10:28:00,
2013-09-12 06:33:00,68.7,63.7,0.00,North,357,0.0,0.0,84,0.00,,---,0.00,VWS V13.01,2013-09-12 10:33:00,
2013-09-12 06:38:00,68.7,63.7,0.00,North,357,0.0,0.0,84,0.00,,---,0.00,VWS V13.01,2013-09-12 10:38:00,
2013-09-12 06:43:00,68.7,63.3,0.00,North,357,0.0,0.0,83,0.00,,---,0.00,VWS V13.01,2013-09-12 10:43:00,
2013-09-12 06:48:00,68.9,63.5,0.00,North,357,0.0,0.0,83,0.00,,---,0.00,VWS V13.01,2013-09-12 10:48:00,
2013-09-12 06:53:00,68.9,63.5,0.00,North,357,0.0,0.0,83,0.00,,---,0.00,VWS V13.01,2013-09-12 10:53:00,
2013-09-12 06:58:00,68.9,63.2,0.00,North,357,0.0,0.0,82,0.00,,---,0.00,VWS V13.01,2013-09-12 10:58:00,
2013-09-12 07:03:00,68.9,63.2,0.00,North,357,0.0,0.0,82,0.00,,---,0.00,VWS V13.01,2013-09-12 11:03:00,
2013-09-12 07:08:00,68.9,63.2,0.00,North,357,0.0,0.0,82,0.00,,---,0.00,VWS V13.01,2013-09-12 11:08:00,
2013-09-12 07:13:00,69.1,63.4,0.00,North,357,0.0,0.0,82,0.00,,---,0.00,VWS V13.01,2013-09-12 11:13:00,
2013-09-12 07:18:00,69.1,63.4,0.00,North,357,0.0,0.0,82,0.00,,---,0.00,VWS V13.01,2013-09-12 11:18:00,
2013-09-12 07:23:00,69.1,63.4,0.00,North,357,0.0,0.0,82,0.00,,---,0.00,VWS V13.01,2013-09-12 11:23:00,
2013-09-12 07:28:00,69.1,63.4,0.00,North,357,0.0,0.0,82,0.00,,---,0.00,VWS V13.01,2013-09-12 11:28:00,
2013-09-12 07:33:00,69.3,63.9,0.00,North,357,0.0,0.0,83,0.00,,---,0.00,VWS V13.01,2013-09-12 11:33:00,
2013-09-12 07:38:00,69.3,63.9,0.00,North,357,0.0,0.0,83,0.00,,---,0.00,VWS V13.01,2013-09-12 11:38:00,
2013-09-12 07:43:00,69.3,63.9,0.00,North,357,0.0,0.0,83,0.00,,---,0.00,VWS V13.01,2013-09-12 11:43:00,
2013-09-12 07:48:00,69.4,64.4,0.00,North,357,0.0,0.0,84,0.00,,---,0.00,VWS V13.01,2013-09-12 11:48:00,
2013-09-12 07:53:00,69.4,64.4,0.00,North,357,0.0,0.0,84,0.00,,---,0.00,VWS V13.01,2013-09-12 11:53:00,
2013-09-12 07:58:00,69.4,64.4,0.00,North,357,0.0,0.0,84,0.00,,---,0.00,VWS V13.01,2013-09-12 11:58:00,
2013-09-12 08:03:00,69.4,64.4,0.00,North,357,0.0,0.0,84,0.00,,---,0.00,VWS V13.01,2013-09-12 12:03:00,
2013-09-12 08:08:00,69.6,64.6,0.00,North,357,0.0,0.0,84,0.00,,---,0.00,VWS V13.01,2013-09-12 12:08:00,
2013-09-12 08:13:00,69.6,64.6,0.00,North,357,0.0,0.0,84,0.00,,---,0.00,VWS V13.01,2013-09-12 12:13:00,
2013-09-12 08:18:00,69.6,64.6,0.00,North,357,0.0,0.0,84,0.00,,---,0.00,VWS V13.01,2013-09-12 12:18:00,
2013-09-12 08:23:00,69.6,64.6,0.00,North,357,0.0,0.0,84,0.00,,---,0.00,VWS V13.01,2013-09-12 12:23:00,
2013-09-12 08:28:00,69.6,64.6,0.00,North,357,0.0,0.0,84,0.00,,---,0.00,VWS V13.01,2013-09-12 12:28:00,
2013-09-12 08:34:00,69.6,64.6,0.00,North,357,0.0,0.0,84,0.00,,---,0.00,VWS V13.01,2013-09-12 12:34:00,
2013-09-12 08:39:00,69.6,64.9,0.00,North,357,0.0,0.0,85,0.00,,---,0.00,VWS V13.01,2013-09-12 12:39:00,
2013-09-12 08:44:00,69.6,65.2,0.00,North,357,0.0,0.0,86,0.00,,---,0.00,VWS V13.01,2013-09-12 12:44:00,
2013-09-12 08:49:00,69.4,65.1,0.00,North,357,0.0,0.0,86,0.00,,---,0.00,VWS V13.01,2013-09-12 12:49:00,
2013-09-12 08:54:00,69.4,65.4,0.00,North,357,0.0,0.0,87,0.00,,---,0.00,VWS V13.01,2013-09-12 12:54:00,
2013-09-12 08:59:00,69.6,65.6,0.00,North,357,0.0,0.0,87,0.00,,---,0.00,VWS V13.01,2013-09-12 12:59:00,
2013-09-12 09:04:00,69.6,65.9,0.00,North,357,0.0,0.0,88,0.00,,---,0.00,VWS V13.01,2013-09-12 13:04:00,
2013-09-12 09:09:00,69.4,65.7,0.00,North,357,0.0,0.0,88,0.00,,---,0.00,VWS V13.01,2013-09-12 13:09:00,
2013-09-12 09:14:00,69.4,65.7,0.00,North,357,0.0,0.0,88,0.00,,---,0.00,VWS V13.01,2013-09-12 13:14:00,
2013-09-12 09:19:00,69.4,66.1,0.00,North,357,0.0,0.0,89,0.00,,---,0.00,VWS V13.01,2013-09-12 13:19:00,
2013-09-12 09:24:00,69.4,66.1,0.00,North,357,0.0,0.0,89,0.00,,---,0.00,VWS V13.01,2013-09-12 13:24:00,
2013-09-12 09:29:00,69.4,66.4,0.00,North,357,0.0,0.0,90,0.00,,---,0.00,VWS V13.01,2013-09-12 13:29:00,
2013-09-12 09:34:00,69.4,66.4,0.00,North,357,0.0,0.0,90,0.00,,---,0.00,VWS V13.01,2013-09-12 13:34:00,
2013-09-12 09:39:00,69.4,66.7,0.00,North,357,0.0,0.0,91,0.00,,---,0.00,VWS V13.01,2013-09-12 13:39:00,
2013-09-12 09:44:00,69.6,66.9,0.00,North,357,0.0,0.0,91,0.00,,---,0.00,VWS V13.01,2013-09-12 13:44:00,
2013-09-12 09:49:00,69.6,67.2,0.00,North,357,0.0,0.0,92,0.00,,---,0.00,VWS V13.01,2013-09-12 13:49:00,
2013-09-12 09:54:00,69.6,67.2,0.00,North,357,0.0,0.0,92,0.00,,---,0.00,VWS V13.01,2013-09-12 13:54:00,
2013-09-12 09:59:00,69.4,67.0,0.00,North,357,0.0,0.0,92,0.00,,---,0.00,VWS V13.01,2013-09-12 13:59:00,
2013-09-12 10:04:00,69.4,67.3,0.00,North,357,0.0,0.0,93,0.00,,---,0.00,VWS V13.01,2013-09-12 14:04:00,
2013-09-12 10:09:00,69.4,67.3,0.00,North,357,0.0,0.0,93,0.00,,---,0.00,VWS V13.01,2013-09-12 14:09:00,
2013-09-12 10:14:00,69.4,67.3,0.00,North,357,0.0,0.0,93,0.00,,---,0.00,VWS V13.01,2013-09-12 14:14:00,
2013-09-12 10:19:00,69.4,67.6,0.00,North,357,0.0,0.0,94,0.00,,---,0.00,VWS V13.01,2013-09-12 14:19:00,
2013-09-12 10:24:00,69.4,67.6,0.00,North,357,0.0,0.0,94,0.00,,---,0.00,VWS V13.01,2013-09-12 14:24:00,
2013-09-12 10:29:00,69.4,67.9,0.00,North,357,0.0,0.0,95,0.00,,---,0.00,VWS V13.01,2013-09-12 14:29:00,
2013-09-12 10:34:00,69.4,67.9,0.00,North,357,0.0,0.0,95,0.00,,---,0.00,VWS V13.01,2013-09-12 14:34:00,
2013-09-12 10:39:00,69.4,67.9,0.00,North,357,0.0,0.0,95,0.00,,---,0.00,VWS V13.01,2013-09-12 14:39:00,
2013-09-12 10:45:00,69.4,67.9,0.00,North,357,0.0,0.0,95,0.00,,---,0.00,VWS V13.01,2013-09-12 14:45:00,
2013-09-12 10:50:00,69.4,68.2,0.00,North,357,0.0,0.0,96,0.00,,---,0.00,VWS V13.01,2013-09-12 14:50:00,
2013-09-12 10:55:00,69.6,68.4,0.00,North,357,0.0,0.0,96,0.00,,---,0.00,VWS V13.01,2013-09-12 14:55:00,
2013-09-12 11:00:00,69.6,68.4,0.00,North,357,0.0,0.0,96,0.00,,---,0.00,VWS V13.01,2013-09-12 15:00:00,
2013-09-12 11:05:00,69.8,68.3,0.00,North,357,0.0,0.0,95,0.00,,---,0.00,VWS V13.01,2013-09-12 15:05:00,
2013-09-12 11:10:00,70.0,68.5,0.00,North,357,0.0,0.0,95,0.00,,---,0.00,VWS V13.01,2013-09-12 15:10:00,
2013-09-12 11:15:00,70.2,69.0,0.00,North,357,0.0,0.0,96,0.00,,---,0.00,VWS V13.01,2013-09-12 15:15:00,
2013-09-12 11:20:00,70.3,68.8,0.00,North,357,0.0,0.0,95,0.00,,---,0.00,VWS V13.01,2013-09-12 15:20:00,
2013-09-12 11:25:00,70.3,68.8,0.00,North,357,0.0,0.0,95,0.00,,---,0.00,VWS V13.01,2013-09-12 15:25:00,
2013-09-12 11:30:00,70.3,68.8,0.00,North,357,0.0,0.0,95,0.00,,---,0.00,VWS V13.01,2013-09-12 15:30:00,
2013-09-12 11:35:00,70.5,69.0,0.00,North,357,0.0,0.0,95,0.00,,---,0.00,VWS V13.01,2013-09-12 15:35:00,
2013-09-12 11:40:00,70.5,69.0,0.00,North,357,0.0,0.0,95,0.00,,---,0.00,VWS V13.01,2013-09-12 15:40:00,
2013-09-12 11:45:00,70.5,68.7,0.00,North,357,0.0,0.0,94,0.00,,---,0.00,VWS V13.01,2013-09-12 15:45:00,
2013-09-12 11:50:00,70.5,68.7,0.00,North,357,0.0,0.0,94,0.00,,---,0.00,VWS V13.01,2013-09-12 15:50:00,
2013-09-12 11:55:00,70.7,68.9,0.00,North,357,0.0,0.0,94,0.00,,---,0.00,VWS V13.01,2013-09-12 15:55:00,
2013-09-12 12:00:00,70.9,68.8,0.00,North,357,0.0,0.0,93,0.00,,---,0.00,VWS V13.01,2013-09-12 16:00:00,
2013-09-12 12:05:00,70.9,68.4,0.00,North,357,0.0,0.0,92,0.00,,---,0.00,VWS V13.01,2013-09-12 16:05:00,
2013-09-12 12:10:00,70.9,68.1,0.00,North,357,0.0,0.0,91,0.00,,---,0.00,VWS V13.01,2013-09-12 16:10:00,
2013-09-12 12:15:00,70.9,68.1,0.00,North,357,0.0,0.0,91,0.00,,---,0.00,VWS V13.01,2013-09-12 16:15:00,
2013-09-12 12:20:00,70.9,67.8,0.00,North,357,0.0,0.0,90,0.00,,---,0.00,VWS V13.01,2013-09-12 16:20:00,
2013-09-12 12:25:00,70.7,67.3,0.00,North,357,0.0,0.0,89,0.00,,---,0.00,VWS V13.01,2013-09-12 16:25:00,
2013-09-12 12:30:00,70.5,66.8,0.00,North,357,0.0,0.0,88,0.00,,---,0.00,VWS V13.01,2013-09-12 16:30:00,
2013-09-12 12:35:00,70.3,66.3,0.00,North,357,0.0,0.0,87,0.00,,---,0.00,VWS V13.01,2013-09-12 16:35:00,
2013-09-12 12:40:00,70.3,66.0,0.00,North,357,0.0,0.0,86,0.00,,---,0.00,VWS V13.01,2013-09-12 16:40:00,
2013-09-12 12:45:00,70.2,65.1,0.00,North,357,0.0,0.0,84,0.00,,---,0.00,VWS V13.01,2013-09-12 16:45:00,
2013-09-12 12:50:00,70.3,65.3,0.00,North,357,0.0,0.0,84,0.00,,---,0.00,VWS V13.01,2013-09-12 16:50:00,
2013-09-12 12:55:00,70.3,64.9,0.00,North,357,0.0,0.0,83,0.00,,---,0.00,VWS V13.01,2013-09-12 16:55:00,
2013-09-12 13:01:00,70.3,64.9,0.00,North,357,0.0,0.0,83,0.00,,---,0.00,VWS V13.01,2013-09-12 17:01:00,
2013-09-12 13:06:00,70.2,64.4,0.00,North,357,0.0,0.0,82,0.00,,---,0.00,VWS V13.01,2013-09-12 17:06:00,
2013-09-12 13:11:00,70.2,64.4,0.00,North,357,0.0,0.0,82,0.00,,---,0.00,VWS V13.01,2013-09-12 17:11:00,
2013-09-12 13:16:00,70.2,64.4,0.00,North,357,0.0,0.0,82,0.00,,---,0.00,VWS V13.01,2013-09-12 17:16:00,
2013-09-12 13:21:00,70.2,64.4,0.00,North,357,0.0,0.0,82,0.00,,---,0.00,VWS V13.01,2013-09-12 17:21:00,
2013-09-12 13:26:00,70.2,64.4,0.00,North,357,0.0,0.0,82,0.00,,---,0.00,VWS V13.01,2013-09-12 17:26:00,
2013-09-12 13:31:00,70.2,64.4,0.00,North,357,0.0,0.0,82,0.00,,---,0.00,VWS V13.01,2013-09-12 17:31:00,
2013-09-12 13:36:00,70.0,64.2,0.00,North,357,0.0,0.0,82,0.00,,---,0.00,VWS V13.01,2013-09-12 17:36:00,
2013-09-12 13:41:00,70.0,64.2,0.00,North,357,0.0,0.0,82,0.00,,---,0.00,VWS V13.01,2013-09-12 17:41:00,
2013-09-12 13:46:00,70.0,64.2,0.00,North,357,0.0,0.0,82,0.00,,---,0.00,VWS V13.01,2013-09-12 17:46:00,
2013-09-12 13:51:00,70.0,64.6,0.00,North,357,0.0,0.0,83,0.00,,---,0.00,VWS V13.01,2013-09-12 17:51:00,
2013-09-12 13:56:00,70.0,64.6,0.00,North,357,0.0,0.0,83,0.00,,---,0.00,VWS V13.01,2013-09-12 17:56:00,
2013-09-12 14:01:00,70.2,64.4,0.00,North,357,0.0,0.0,82,0.00,,---,0.00,VWS V13.01,2013-09-12 18:01:00,
2013-09-12 14:06:00,70.2,64.4,0.00,North,357,0.0,0.0,82,0.00,,---,0.00,VWS V13.01,2013-09-12 18:06:00,
2013-09-12 14:11:00,70.2,64.4,0.00,North,357,0.0,0.0,82,0.00,,---,0.00,VWS V13.01,2013-09-12 18:11:00,
2013-09-12 14:16:00,70.2,64.4,0.00,North,357,0.0,0.0,82,0.00,,---,0.00,VWS V13.01,2013-09-12 18:16:00,
2013-09-12 14:21:00,70.3,64.6,0.00,North,357,0.0,0.0,82,0.00,,---,0.00,VWS V13.01,2013-09-12 18:21:00,
2013-09-12 14:26:00,70.5,64.8,0.00,North,357,0.0,0.0,82,0.00,,---,0.00,VWS V13.01,2013-09-12 18:26:00,
2013-09-12 14:31:00,70.5,64.4,0.00,North,357,0.0,0.0,81,0.00,,---,0.00,VWS V13.01,2013-09-12 18:31:00,
2013-09-12 14:36:00,70.5,64.4,0.00,North,357,0.0,0.0,81,0.00,,---,0.00,VWS V13.01,2013-09-12 18:36:00,
2013-09-12 14:41:00,70.5,64.1,0.00,North,357,0.0,0.0,80,0.00,,---,0.00,VWS V13.01,2013-09-12 18:41:00,
2013-09-12 14:46:00,70.5,64.1,0.00,North,357,0.0,0.0,80,0.00,,---,0.00,VWS V13.01,2013-09-12 18:46:00,
2013-09-12 14:51:00,70.7,64.2,0.00,North,357,0.0,0.0,80,0.00,,---,0.00,VWS V13.01,2013-09-12 18:51:00,
2013-09-12 14:56:00,70.7,64.2,0.00,North,357,0.0,0.0,80,0.00,,---,0.00,VWS V13.01,2013-09-12 18:56:00,
2013-09-12 15:01:00,70.7,64.2,0.00,North,357,0.0,0.0,80,0.00,,---,0.00,VWS V13.01,2013-09-12 19:01:00,
2013-09-12 15:06:00,70.5,63.7,0.00,North,357,0.0,0.0,79,0.00,,---,0.00,VWS V13.01,2013-09-12 19:06:00,
2013-09-12 15:12:00,70.3,63.5,0.00,North,357,0.0,0.0,79,0.00,,---,0.00,VWS V13.01,2013-09-12 19:12:00,
2013-09-12 15:17:00,70.3,63.5,0.00,North,357,0.0,0.0,79,0.00,,---,0.00,VWS V13.01,2013-09-12 19:17:00,
2013-09-12 15:22:00,70.3,63.5,0.00,North,357,0.0,0.0,79,0.00,,---,0.00,VWS V13.01,2013-09-12 19:22:00,
2013-09-12 15:27:00,70.3,63.5,0.00,North,357,0.0,0.0,79,0.00,,---,0.00,VWS V13.01,2013-09-12 19:27:00,
2013-09-12 15:32:00,70.5,63.7,0.00,North,357,0.0,0.0,79,0.00,,---,0.00,VWS V13.01,2013-09-12 19:32:00,
2013-09-12 15:37:00,70.7,64.2,0.00,North,357,0.0,0.0,80,0.00,,---,0.00,VWS V13.01,2013-09-12 19:37:00,
2013-09-12 15:42:00,70.9,64.4,0.00,North,357,0.0,0.0,80,0.00,,---,0.00,VWS V13.01,2013-09-12 19:42:00,
2013-09-12 15:47:00,71.1,64.2,0.00,North,357,0.0,0.0,79,0.00,,---,0.00,VWS V13.01,2013-09-12 19:47:00,
2013-09-12 15:52:00,71.1,64.2,0.00,North,357,0.0,0.0,79,0.00,,---,0.00,VWS V13.01,2013-09-12 19:52:00,
2013-09-12 15:57:00,71.1,64.2,0.00,North,357,0.0,0.0,79,0.00,,---,0.00,VWS V13.01,2013-09-12 19:57:00,
2013-09-12 16:02:00,71.1,64.2,0.00,North,357,0.0,0.0,79,0.00,,---,0.00,VWS V13.01,2013-09-12 20:02:00,
2013-09-12 16:07:00,71.1,64.2,0.00,North,357,0.0,0.0,79,0.00,,---,0.00,VWS V13.01,2013-09-12 20:07:00,
2013-09-12 16:12:00,71.1,64.2,0.00,North,357,0.0,0.0,79,0.00,,---,0.00,VWS V13.01,2013-09-12 20:12:00,
2013-09-12 16:17:00,71.1,64.2,0.00,North,357,0.0,0.0,79,0.00,,---,0.00,VWS V13.01,2013-09-12 20:17:00,
2013-09-12 16:22:00,71.1,64.2,0.00,North,357,0.0,0.0,79,0.00,,---,0.00,VWS V13.01,2013-09-12 20:22:00,
2013-09-12 16:27:00,71.1,64.2,0.00,North,357,0.0,0.0,79,0.00,,---,0.00,VWS V13.01,2013-09-12 20:27:00,
2013-09-12 16:32:00,71.1,64.2,0.00,North,357,0.0,0.0,79,0.00,,---,0.00,VWS V13.01,2013-09-12 20:32:00,
2013-09-12 16:37:00,71.1,64.2,0.00,North,357,0.0,0.0,79,0.00,,---,0.00,VWS V13.01,2013-09-12 20:37:00,
2013-09-12 16:42:00,71.1,64.2,0.00,North,357,0.0,0.0,79,0.00,,---,0.00,VWS V13.01,2013-09-12 20:42:00,
2013-09-12 16:47:00,71.2,64.8,0.00,North,357,0.0,0.0,80,0.00,,---,0.00,VWS V13.01,2013-09-12 20:47:00,
2013-09-12 16:52:00,71.4,64.9,0.00,North,357,0.0,0.0,80,0.00,,---,0.00,VWS V13.01,2013-09-12 20:52:00,
2013-09-12 16:57:00,71.4,64.9,0.00,North,357,0.0,0.0,80,0.00,,---,0.00,VWS V13.01,2013-09-12 20:57:00,
2013-09-12 17:02:00,71.4,64.6,0.00,North,357,0.0,0.0,79,0.00,,---,0.00,VWS V13.01,2013-09-12 21:02:00,
2013-09-12 17:07:00,71.4,64.6,0.00,North,357,0.0,0.0,79,0.00,,---,0.00,VWS V13.01,2013-09-12 21:07:00,
2013-09-12 17:12:00,71.4,64.6,0.00,North,357,0.0,0.0,79,0.00,,---,0.00,VWS V13.01,2013-09-12 21:12:00,
2013-09-12 17:18:00,71.4,64.6,0.00,North,357,0.0,0.0,79,0.00,,---,0.00,VWS V13.01,2013-09-12 21:18:00,
2013-09-12 17:23:00,71.2,64.4,0.00,North,357,0.0,0.0,79,0.00,,---,0.00,VWS V13.01,2013-09-12 21:23:00,
2013-09-12 17:28:00,71.1,64.2,0.00,North,357,0.0,0.0,79,0.00,,---,0.00,VWS V13.01,2013-09-12 21:28:00,
2013-09-12 17:33:00,70.0,62.1,0.00,North,357,0.0,0.0,76,0.00,,---,0.00,VWS V13.01,2013-09-12 21:33:00,
2013-09-12 17:38:00,69.1,60.8,0.00,North,357,0.0,0.0,75,0.00,,---,0.00,VWS V13.01,2013-09-12 21:38:00,
2013-09-12 17:43:00,68.4,60.1,0.00,North,357,0.0,0.0,75,0.00,,---,0.00,VWS V13.01,2013-09-12 21:43:00,
2013-09-12 17:48:00,67.8,60.0,0.00,North,357,0.0,0.0,76,0.00,,---,0.00,VWS V13.01,2013-09-12 21:48:00,
2013-09-12 17:53:00,67.5,60.0,0.00,North,357,0.0,0.0,77,0.00,,---,0.00,VWS V13.01,2013-09-12 21:53:00,
2013-09-12 17:58:00,66.9,59.8,0.00,North,357,0.0,0.0,78,0.00,,---,0.00,VWS V13.01,2013-09-12 21:58:00,
2013-09-12 18:03:00,66.4,59.3,0.00,North,357,0.0,0.0,78,0.00,,---,0.00,VWS V13.01,2013-09-12 22:03:00,
2013-09-12 18:08:00,66.2,59.5,0.00,North,357,0.0,0.0,79,0.00,,---,0.00,VWS V13.01,2013-09-12 22:08:00,
2013-09-12 18:13:00,66.0,59.7,0.00,North,357,0.0,0.0,80,0.00,,---,0.00,VWS V13.01,2013-09-12 22:13:00,
2013-09-12 18:18:00,65.8,59.8,0.00,North,357,0.0,0.0,81,0.00,,---,0.00,VWS V13.01,2013-09-12 22:18:00,
2013-09-12 18:23:00,65.7,60.0,0.00,North,357,0.0,0.0,82,0.00,,---,0.00,VWS V13.01,2013-09-12 22:23:00,
2013-09-12 18:28:00,65.7,60.0,0.00,North,357,0.0,0.0,82,0.00,,---,0.00,VWS V13.01,2013-09-12 22:28:00,
2013-09-12 18:33:00,65.7,60.4,0.00,North,357,0.0,0.0,83,0.00,,---,0.00,VWS V13.01,2013-09-12 22:33:00,
2013-09-12 18:38:00,65.7,60.7,0.00,North,357,0.0,0.0,84,0.00,,---,0.00,VWS V13.01,2013-09-12 22:38:00,
2013-09-12 18:43:00,65.7,61.0,0.00,North,357,0.0,0.0,85,0.00,,---,0.00,VWS V13.01,2013-09-12 22:43:00,
2013-09-12 18:48:00,65.8,61.5,0.00,North,357,0.0,0.0,86,0.00,,---,0.00,VWS V13.01,2013-09-12 22:48:00,
2013-09-12 18:53:00,66.0,61.7,0.00,North,357,0.0,0.0,86,0.00,,---,0.00,VWS V13.01,2013-09-12 22:53:00,
2013-09-12 18:58:00,65.8,61.9,0.00,North,357,0.0,0.0,87,0.00,,---,0.00,VWS V13.01,2013-09-12 22:58:00,
2013-09-12 19:03:00,65.8,61.9,0.00,North,357,0.0,0.0,87,0.00,,---,0.00,VWS V13.01,2013-09-12 23:03:00,
2013-09-12 19:09:00,65.7,61.7,0.00,North,357,0.0,0.0,87,0.00,,---,0.00,VWS V13.01,2013-09-12 23:09:00,
2013-09-12 19:14:00,65.3,61.3,0.00,North,357,0.0,0.0,87,0.00,,---,0.00,VWS V13.01,2013-09-12 23:14:00,
2013-09-12 19:19:00,65.1,61.2,0.00,North,357,0.0,0.0,87,0.00,,---,0.00,VWS V13.01,2013-09-12 23:19:00,
2013-09-12 19:24:00,64.8,60.8,0.00,North,357,0.0,0.0,87,0.00,,---,0.00,VWS V13.01,2013-09-12 23:24:00,
2013-09-12 19:29:00,64.6,61.0,0.00,North,357,0.0,0.0,88,0.00,,---,0.00,VWS V13.01,2013-09-12 23:29:00,
2013-09-12 19:34:00,64.4,60.8,0.00,North,357,0.0,0.0,88,0.00,,---,0.00,VWS V13.01,2013-09-12 23:34:00,
2013-09-12 19:39:00,64.2,60.6,0.00,North,357,0.0,0.0,88,0.00,,---,0.00,VWS V13.01,2013-09-12 23:39:00,
2013-09-12 19:44:00,63.9,60.2,0.00,North,357,0.0,0.0,88,0.00,,---,0.00,VWS V13.01,2013-09-12 23:44:00,
2013-09-12 19:49:00,63.7,60.1,0.00,North,357,0.0,0.0,88,0.00,,---,0.00,VWS V13.01,2013-09-12 23:49:00,
2013-09-12 19:54:00,63.5,60.2,0.00,North,357,0.0,0.0,89,0.00,,---,0.00,VWS V13.01,2013-09-12 23:54:00,
2013-09-12 19:59:00,63.1,59.5,0.00,North,357,0.0,0.0,88,0.00,,---,0.00,VWS V13.01,2013-09-12 23:59:00,
2013-09-12 20:04:00,63.0,59.7,0.00,North,357,0.0,0.0,89,0.00,,---,0.00,VWS V13.01,2013-09-13 00:04:00,
2013-09-12 20:09:00,62.8,59.5,0.00,North,357,0.0,0.0,89,0.00,,---,0.00,VWS V13.01,2013-09-13 00:09:00,
2013-09-12 20:14:00,62.6,59.3,0.00,North,357,0.0,0.0,89,0.00,,---,0.00,VWS V13.01,2013-09-13 00:14:00,
2013-09-12 20:19:00,62.6,59.3,0.00,North,357,0.0,0.0,89,0.00,,---,0.00,VWS V13.01,2013-09-13 00:19:00,
2013-09-12 20:24:00,62.4,59.5,0.00,North,357,0.0,0.0,90,0.00,,---,0.00,VWS V13.01,2013-09-13 00:24:00,
2013-09-12 20:29:00,62.2,59.3,0.00,North,357,0.0,0.0,90,0.00,,---,0.00,VWS V13.01,2013-09-13 00:29:00,
2013-09-12 20:34:00,62.2,59.3,0.00,North,357,0.0,0.0,90,0.00,,---,0.00,VWS V13.01,2013-09-13 00:34:00,
2013-09-12 20:39:00,62.1,59.1,0.00,North,357,0.0,0.0,90,0.00,,---,0.00,VWS V13.01,2013-09-13 00:39:00,
2013-09-12 20:44:00,61.9,59.2,0.00,North,357,0.0,0.0,91,0.00,,---,0.00,VWS V13.01,2013-09-13 00:44:00,
2013-09-12 20:50:00,61.9,59.2,0.00,North,357,0.0,0.0,91,0.00,,---,0.00,VWS V13.01,2013-09-13 00:50:00,
2013-09-12 20:55:00,61.9,59.2,0.00,North,357,0.0,0.0,91,0.00,,---,0.00,VWS V13.01,2013-09-13 00:55:00,
2013-09-12 21:00:00,61.9,59.2,0.00,North,357,0.0,0.0,91,0.00,,---,0.00,VWS V13.01,2013-09-13 01:00:00,
2013-09-12 21:05:00,61.9,59.5,0.00,North,357,0.0,0.0,92,0.00,,---,0.00,VWS V13.01,2013-09-13 01:05:00,
2013-09-12 21:10:00,61.7,59.4,0.00,North,357,0.0,0.0,92,0.00,,---,0.00,VWS V13.01,2013-09-13 01:10:00,
2013-09-12 21:15:00,61.7,59.4,0.00,North,357,0.0,0.0,92,0.00,,---,0.00,VWS V13.01,2013-09-13 01:15:00,
2013-09-12 21:20:00,61.5,59.2,0.00,North,357,0.0,0.0,92,0.00,,---,0.00,VWS V13.01,2013-09-13 01:20:00,
2013-09-12 21:25:00,61.3,59.0,0.00,North,357,0.0,0.0,92,0.00,,---,0.00,VWS V13.01,2013-09-13 01:25:00,
2013-09-12 21:30:00,61.2,58.8,0.00,North,357,0.0,0.0,92,0.00,,---,0.00,VWS V13.01,2013-09-13 01:30:00,
2013-09-12 21:35:00,61.2,59.1,0.00,North,357,0.0,0.0,93,0.00,,---,0.00,VWS V13.01,2013-09-13 01:35:00,
2013-09-12 21:40:00,61.2,59.1,0.00,North,357,0.0,0.0,93,0.00,,---,0.00,VWS V13.01,2013-09-13 01:40:00,
2013-09-12 21:45:00,61.2,59.1,0.00,North,357,0.0,0.0,93,0.00,,---,0.00,VWS V13.01,2013-09-13 01:45:00,
2013-09-12 21:50:00,61.0,59.0,0.00,North,357,0.0,0.0,93,0.00,,---,0.00,VWS V13.01,2013-09-13 01:50:00,
2013-09-12 21:55:00,61.0,59.2,0.00,North,357,0.0,0.0,94,0.00,,---,0.00,VWS V13.01,2013-09-13 01:55:00,
2013-09-12 22:00:00,60.8,58.8,0.00,North,357,0.0,0.0,93,0.00,,---,0.00,VWS V13.01,2013-09-13 02:00:00,
2013-09-12 22:05:00,60.6,58.9,0.00,North,357,0.0,0.0,94,0.00,,---,0.00,VWS V13.01,2013-09-13 02:05:00,
2013-09-12 22:10:00,60.8,59.1,0.00,North,357,0.0,0.0,94,0.00,,---,0.00,VWS V13.01,2013-09-13 02:10:00,
2013-09-12 22:15:00,60.6,59.2,0.00,North,357,0.0,0.0,95,0.00,,---,0.00,VWS V13.01,2013-09-13 02:15:00,
2013-09-12 22:20:00,60.6,59.2,0.00,North,357,0.0,0.0,95,0.00,,---,0.00,VWS V13.01,2013-09-13 02:20:00,
2013-09-12 22:25:00,60.4,59.0,0.00,North,357,0.0,0.0,95,0.00,,---,0.00,VWS V13.01,2013-09-13 02:25:00,
2013-09-12 22:31:00,60.3,58.8,0.00,North,357,0.0,0.0,95,0.00,,---,0.00,VWS V13.01,2013-09-13 02:31:00,
2013-09-12 22:36:00,60.1,58.3,0.00,North,357,0.0,0.0,94,0.00,,---,0.00,VWS V13.01,2013-09-13 02:36:00,
2013-09-12 22:41:00,60.1,58.3,0.00,North,357,0.0,0.0,94,0.00,,---,0.00,VWS V13.01,2013-09-13 02:41:00,
2013-09-12 22:46:00,59.9,58.5,0.00,North,357,0.0,0.0,95,0.00,,---,0.00,VWS V13.01,2013-09-13 02:46:00,
2013-09-12 22:51:00,59.9,58.5,0.00,North,357,0.0,0.0,95,0.00,,---,0.00,VWS V13.01,2013-09-13 02:51:00,
2013-09-12 22:56:00,59.7,58.3,0.00,North,357,0.0,0.0,95,0.00,,---,0.00,VWS V13.01,2013-09-13 02:56:00,
2013-09-12 23:01:00,59.7,58.3,0.00,North,357,0.0,0.0,95,0.00,,---,0.00,VWS V13.01,2013-09-13 03:01:00,
2013-09-12 23:06:00,59.5,57.8,0.00,North,357,0.0,0.0,94,0.00,,---,0.00,VWS V13.01,2013-09-13 03:06:00,
2013-09-12 23:11:00,59.4,57.6,0.00,North,357,0.0,0.0,94,0.00,,---,0.00,VWS V13.01,2013-09-13 03:11:00,
2013-09-12 23:16:00,59.4,57.6,0.00,North,357,0.0,0.0,94,0.00,,---,0.00,VWS V13.01,2013-09-13 03:16:00,
2013-09-12 23:21:00,59.2,57.5,0.00,North,357,0.0,0.0,94,0.00,,---,0.00,VWS V13.01,2013-09-13 03:21:00,
2013-09-12 23:26:00,59.2,57.5,0.00,North,357,0.0,0.0,94,0.00,,---,0.00,VWS V13.01,2013-09-13 03:26:00,
2013-09-12 23:31:00,59.2,57.8,0.00,North,357,0.0,0.0,95,0.00,,---,0.00,VWS V13.01,2013-09-13 03:31:00,
2013-09-12 23:36:00,59.2,57.8,0.00,North,357,0.0,0.0,95,0.00,,---,0.00,VWS V13.01,2013-09-13 03:36:00,
2013-09-12 23:41:00,59.2,57.8,0.00,North,357,0.0,0.0,95,0.00,,---,0.00,VWS V13.01,2013-09-13 03:41:00,
2013-09-12 23:47:00,59.0,57.3,0.00,North,357,0.0,0.0,94,0.00,,---,0.00,VWS V13.01,2013-09-13 03:47:00,
2013-09-12 23:52:00,58.8,57.4,0.00,North,357,0.0,0.0,95,0.00,,---,0.00,VWS V13.01,2013-09-13 03:52:00,
2013-09-12 23:57:00,58.8,57.4,0.00,North,357,0.0,0.0,95,0.00,,---,0.00,VWS V13.01,2013-09-13 03:57:00,